sensor_id;sensor_type;location;lat;lon;timestamp;temperature;humidity
18225;DHT22;9237;48.590;8.854;2023-05-21T00:01:01;15.10;99.90
18225;DHT22;9237;48.590;8.854;2023-05-21T00:03:30;15.10;99.90
18225;DHT22;9237;48.590;8.854;2023-05-21T00:05:57;15.00;99.90
18225;DHT22;9237;48.590;8.854;2023-05-21T00:08:26;15.00;99.90
18225;DHT22;9237;48.590;8.854;2023-05-21T00:10:54;15.00;99.90
18225;DHT22;9237;48.590;8.854;2023-05-21T00:13:21;15.00;99.90
18225;DHT22;9237;48.590;8.854;2023-05-21T00:15:47;14.90;99.90
18225;DHT22;9237;48.590;8.854;2023-05-21T00:18:14;14.90;99.90
18225;DHT22;9237;48.590;8.854;2023-05-21T00:20:41;14.90;99.90
18225;DHT22;9237;48.590;8.854;2023-05-21T00:23:08;14.80;99.90
18225;DHT22;9237;48.590;8.854;2023-05-21T00:25:35;14.70;99.90
18225;DHT22;9237;48.590;8.854;2023-05-21T00:28:04;14.70;99.90
18225;DHT22;9237;48.590;8.854;2023-05-21T00:30:30;14.70;99.90
18225;DHT22;9237;48.590;8.854;2023-05-21T00:32:57;14.60;99.90
18225;DHT22;9237;48.590;8.854;2023-05-21T00:35:26;14.60;99.90
18225;DHT22;9237;48.590;8.854;2023-05-21T00:37:53;14.50;99.90
18225;DHT22;9237;48.590;8.854;2023-05-21T00:40:21;14.50;99.90
18225;DHT22;9237;48.590;8.854;2023-05-21T00:42:48;14.50;99.90
18225;DHT22;9237;48.590;8.854;2023-05-21T00:45:16;14.50;99.90
18225;DHT22;9237;48.590;8.854;2023-05-21T00:47:44;14.40;99.90
18225;DHT22;9237;48.590;8.854;2023-05-21T00:50:12;14.40;99.90
18225;DHT22;9237;48.590;8.854;2023-05-21T00:52:40;14.40;99.90
18225;DHT22;9237;48.590;8.854;2023-05-21T00:55:08;14.30;99.90
18225;DHT22;9237;48.590;8.854;2023-05-21T00:57:35;14.30;99.90
18225;DHT22;9237;48.590;8.854;2023-05-21T01:00:04;14.60;99.90
18225;DHT22;9237;48.590;8.854;2023-05-21T01:02:35;14.20;99.90
18225;DHT22;9237;48.590;8.854;2023-05-21T01:05:02;14.10;99.90
18225;DHT22;9237;48.590;8.854;2023-05-21T01:07:31;14.20;99.90
18225;DHT22;9237;48.590;8.854;2023-05-21T01:10:00;14.10;99.90
18225;DHT22;9237;48.590;8.854;2023-05-21T01:12:29;14.20;99.90
18225;DHT22;9237;48.590;8.854;2023-05-21T01:14:57;14.20;99.90
18225;DHT22;9237;48.590;8.854;2023-05-21T01:17:26;14.20;99.90
18225;DHT22;9237;48.590;8.854;2023-05-21T01:19:56;14.00;99.90
18225;DHT22;9237;48.590;8.854;2023-05-21T01:22:24;14.00;99.90
18225;DHT22;9237;48.590;8.854;2023-05-21T01:24:54;14.00;99.90
18225;DHT22;9237;48.590;8.854;2023-05-21T01:27:21;14.00;99.90
18225;DHT22;9237;48.590;8.854;2023-05-21T01:29:47;14.00;99.90
18225;DHT22;9237;48.590;8.854;2023-05-21T01:32:18;13.90;99.90
18225;DHT22;9237;48.590;8.854;2023-05-21T01:34:54;13.80;99.90
18225;DHT22;9237;48.590;8.854;2023-05-21T01:37:26;13.70;99.90
18225;DHT22;9237;48.590;8.854;2023-05-21T01:40:00;13.60;99.90
18225;DHT22;9237;48.590;8.854;2023-05-21T01:42:29;13.60;99.90
18225;DHT22;9237;48.590;8.854;2023-05-21T01:44:56;13.60;99.90
18225;DHT22;9237;48.590;8.854;2023-05-21T01:47:26;13.60;99.90
18225;DHT22;9237;48.590;8.854;2023-05-21T01:49:55;13.70;99.90
18225;DHT22;9237;48.590;8.854;2023-05-21T01:52:22;13.60;99.90
18225;DHT22;9237;48.590;8.854;2023-05-21T01:54:50;13.60;99.90
18225;DHT22;9237;48.590;8.854;2023-05-21T01:57:20;13.70;99.90
18225;DHT22;9237;48.590;8.854;2023-05-21T01:59:46;13.70;99.90
18225;DHT22;9237;48.590;8.854;2023-05-21T02:02:13;13.80;99.90
18225;DHT22;9237;48.590;8.854;2023-05-21T02:04:40;13.70;99.90
18225;DHT22;9237;48.590;8.854;2023-05-21T02:07:08;13.70;99.90
18225;DHT22;9237;48.590;8.854;2023-05-21T02:09:35;13.70;99.90
18225;DHT22;9237;48.590;8.854;2023-05-21T02:12:02;13.70;99.90
18225;DHT22;9237;48.590;8.854;2023-05-21T02:14:31;13.60;99.90
18225;DHT22;9237;48.590;8.854;2023-05-21T02:16:58;13.60;99.90
18225;DHT22;9237;48.590;8.854;2023-05-21T02:19:26;13.60;99.90
18225;DHT22;9237;48.590;8.854;2023-05-21T02:21:53;13.50;99.90
18225;DHT22;9237;48.590;8.854;2023-05-21T02:24:20;13.50;99.90
18225;DHT22;9237;48.590;8.854;2023-05-21T02:26:49;13.40;99.90
18225;DHT22;9237;48.590;8.854;2023-05-21T02:29:16;13.40;99.90
18225;DHT22;9237;48.590;8.854;2023-05-21T02:31:44;13.40;99.90
18225;DHT22;9237;48.590;8.854;2023-05-21T02:34:11;13.40;99.90
18225;DHT22;9237;48.590;8.854;2023-05-21T02:36:38;13.30;99.90
18225;DHT22;9237;48.590;8.854;2023-05-21T02:39:06;13.30;99.90
18225;DHT22;9237;48.590;8.854;2023-05-21T02:41:32;13.20;99.90
18225;DHT22;9237;48.590;8.854;2023-05-21T02:43:59;13.20;99.90
18225;DHT22;9237;48.590;8.854;2023-05-21T02:46:26;13.10;99.90
18225;DHT22;9237;48.590;8.854;2023-05-21T02:48:54;13.10;99.90
18225;DHT22;9237;48.590;8.854;2023-05-21T02:51:21;13.00;99.90
18225;DHT22;9237;48.590;8.854;2023-05-21T02:53:47;13.00;99.90
18225;DHT22;9237;48.590;8.854;2023-05-21T02:56:14;13.10;99.90
18225;DHT22;9237;48.590;8.854;2023-05-21T02:58:41;13.00;99.90
18225;DHT22;9237;48.590;8.854;2023-05-21T03:01:08;13.00;99.90
18225;DHT22;9237;48.590;8.854;2023-05-21T03:03:35;12.90;99.90
18225;DHT22;9237;48.590;8.854;2023-05-21T03:06:03;12.90;99.90
18225;DHT22;9237;48.590;8.854;2023-05-21T03:08:30;12.90;99.90
18225;DHT22;9237;48.590;8.854;2023-05-21T03:10:57;12.80;99.90
18225;DHT22;9237;48.590;8.854;2023-05-21T03:13:24;12.80;99.90
18225;DHT22;9237;48.590;8.854;2023-05-21T03:15:50;12.80;99.90
18225;DHT22;9237;48.590;8.854;2023-05-21T03:18:20;12.80;99.90
18225;DHT22;9237;48.590;8.854;2023-05-21T03:20:47;12.80;99.90
18225;DHT22;9237;48.590;8.854;2023-05-21T03:23:15;12.80;99.90
18225;DHT22;9237;48.590;8.854;2023-05-21T03:25:42;12.80;99.90
18225;DHT22;9237;48.590;8.854;2023-05-21T03:28:10;12.80;99.90
18225;DHT22;9237;48.590;8.854;2023-05-21T03:30:37;12.70;99.90
18225;DHT22;9237;48.590;8.854;2023-05-21T03:33:03;12.70;99.90
18225;DHT22;9237;48.590;8.854;2023-05-21T03:35:30;12.60;99.90
18225;DHT22;9237;48.590;8.854;2023-05-21T03:37:57;12.60;99.90
18225;DHT22;9237;48.590;8.854;2023-05-21T03:40:25;12.50;99.90
18225;DHT22;9237;48.590;8.854;2023-05-21T03:42:52;12.60;99.90
18225;DHT22;9237;48.590;8.854;2023-05-21T03:45:19;12.60;99.90
18225;DHT22;9237;48.590;8.854;2023-05-21T03:47:46;12.60;99.90
18225;DHT22;9237;48.590;8.854;2023-05-21T03:50:14;12.60;99.90
18225;DHT22;9237;48.590;8.854;2023-05-21T03:52:41;12.60;99.90
18225;DHT22;9237;48.590;8.854;2023-05-21T03:55:08;12.60;99.90
18225;DHT22;9237;48.590;8.854;2023-05-21T03:57:37;12.60;99.90
18225;DHT22;9237;48.590;8.854;2023-05-21T04:00:06;12.50;99.90
18225;DHT22;9237;48.590;8.854;2023-05-21T04:02:33;12.50;99.90
18225;DHT22;9237;48.590;8.854;2023-05-21T04:05:00;12.60;99.90
18225;DHT22;9237;48.590;8.854;2023-05-21T04:07:27;12.50;99.90
18225;DHT22;9237;48.590;8.854;2023-05-21T04:09:54;12.50;99.90
18225;DHT22;9237;48.590;8.854;2023-05-21T04:12:21;12.50;99.90
18225;DHT22;9237;48.590;8.854;2023-05-21T04:14:49;12.40;99.90
18225;DHT22;9237;48.590;8.854;2023-05-21T04:17:17;13.00;99.90
18225;DHT22;9237;48.590;8.854;2023-05-21T04:19:45;12.50;99.90
18225;DHT22;9237;48.590;8.854;2023-05-21T04:22:11;12.50;99.90
18225;DHT22;9237;48.590;8.854;2023-05-21T04:24:38;12.60;99.90
18225;DHT22;9237;48.590;8.854;2023-05-21T04:27:05;12.60;99.90
18225;DHT22;9237;48.590;8.854;2023-05-21T04:29:34;12.60;99.90
18225;DHT22;9237;48.590;8.854;2023-05-21T04:32:04;12.70;99.90
18225;DHT22;9237;48.590;8.854;2023-05-21T04:34:30;12.80;99.90
18225;DHT22;9237;48.590;8.854;2023-05-21T04:36:58;12.80;99.90
18225;DHT22;9237;48.590;8.854;2023-05-21T04:39:26;12.80;99.90
18225;DHT22;9237;48.590;8.854;2023-05-21T04:41:53;12.90;99.90
18225;DHT22;9237;48.590;8.854;2023-05-21T04:44:21;13.00;99.90
18225;DHT22;9237;48.590;8.854;2023-05-21T04:46:48;13.00;99.90
18225;DHT22;9237;48.590;8.854;2023-05-21T04:49:16;13.10;99.90
18225;DHT22;9237;48.590;8.854;2023-05-21T04:51:43;13.20;99.90
18225;DHT22;9237;48.590;8.854;2023-05-21T04:54:09;13.30;99.90
18225;DHT22;9237;48.590;8.854;2023-05-21T04:56:36;13.40;99.90
18225;DHT22;9237;48.590;8.854;2023-05-21T04:59:03;13.40;99.90
18225;DHT22;9237;48.590;8.854;2023-05-21T05:01:31;13.50;99.90
18225;DHT22;9237;48.590;8.854;2023-05-21T05:03:59;13.50;99.90
18225;DHT22;9237;48.590;8.854;2023-05-21T05:06:27;13.60;99.90
18225;DHT22;9237;48.590;8.854;2023-05-21T05:08:54;13.70;99.90
18225;DHT22;9237;48.590;8.854;2023-05-21T05:11:21;13.70;99.90
18225;DHT22;9237;48.590;8.854;2023-05-21T05:13:48;13.80;99.90
18225;DHT22;9237;48.590;8.854;2023-05-21T05:16:14;13.80;99.90
18225;DHT22;9237;48.590;8.854;2023-05-21T05:18:42;14.30;99.90
18225;DHT22;9237;48.590;8.854;2023-05-21T05:21:09;14.00;99.90
18225;DHT22;9237;48.590;8.854;2023-05-21T05:23:37;14.20;99.90
18225;DHT22;9237;48.590;8.854;2023-05-21T05:26:04;14.10;99.90
18225;DHT22;9237;48.590;8.854;2023-05-21T05:28:31;14.20;99.90
18225;DHT22;9237;48.590;8.854;2023-05-21T05:30:57;14.30;99.90
18225;DHT22;9237;48.590;8.854;2023-05-21T05:33:24;14.30;99.90
18225;DHT22;9237;48.590;8.854;2023-05-21T05:35:51;14.50;99.90
18225;DHT22;9237;48.590;8.854;2023-05-21T05:38:19;14.10;99.90
18225;DHT22;9237;48.590;8.854;2023-05-21T05:40:47;14.60;99.90
18225;DHT22;9237;48.590;8.854;2023-05-21T05:43:14;14.70;99.90
18225;DHT22;9237;48.590;8.854;2023-05-21T05:45:41;14.70;99.90
18225;DHT22;9237;48.590;8.854;2023-05-21T05:48:07;14.80;99.90
18225;DHT22;9237;48.590;8.854;2023-05-21T05:50:34;14.80;99.90
18225;DHT22;9237;48.590;8.854;2023-05-21T05:53:01;15.30;99.90
18225;DHT22;9237;48.590;8.854;2023-05-21T05:55:28;15.10;99.90
18225;DHT22;9237;48.590;8.854;2023-05-21T05:57:56;15.20;99.90
18225;DHT22;9237;48.590;8.854;2023-05-21T06:00:23;15.30;99.90
18225;DHT22;9237;48.590;8.854;2023-05-21T06:02:50;15.40;99.90
18225;DHT22;9237;48.590;8.854;2023-05-21T06:05:17;15.50;99.90
18225;DHT22;9237;48.590;8.854;2023-05-21T06:07:44;15.70;99.90
18225;DHT22;9237;48.590;8.854;2023-05-21T06:10:11;15.70;99.90
18225;DHT22;9237;48.590;8.854;2023-05-21T06:12:38;15.90;99.90
18225;DHT22;9237;48.590;8.854;2023-05-21T06:15:07;16.00;99.90
18225;DHT22;9237;48.590;8.854;2023-05-21T06:17:34;16.00;99.90
18225;DHT22;9237;48.590;8.854;2023-05-21T06:20:01;16.10;99.90
18225;DHT22;9237;48.590;8.854;2023-05-21T06:22:28;16.30;99.90
18225;DHT22;9237;48.590;8.854;2023-05-21T06:24:55;16.50;99.90
18225;DHT22;9237;48.590;8.854;2023-05-21T06:27:22;16.40;99.90
18225;DHT22;9237;48.590;8.854;2023-05-21T06:29:48;16.70;99.90
18225;DHT22;9237;48.590;8.854;2023-05-21T06:32:17;17.00;99.90
18225;DHT22;9237;48.590;8.854;2023-05-21T06:34:45;17.40;99.90
18225;DHT22;9237;48.590;8.854;2023-05-21T06:37:12;17.60;99.90
18225;DHT22;9237;48.590;8.854;2023-05-21T06:39:39;17.60;99.90
18225;DHT22;9237;48.590;8.854;2023-05-21T06:42:06;17.70;99.90
18225;DHT22;9237;48.590;8.854;2023-05-21T06:44:32;18.10;99.90
18225;DHT22;9237;48.590;8.854;2023-05-21T06:46:59;18.30;99.90
18225;DHT22;9237;48.590;8.854;2023-05-21T06:49:27;18.50;99.90
18225;DHT22;9237;48.590;8.854;2023-05-21T06:51:54;18.90;99.90
18225;DHT22;9237;48.590;8.854;2023-05-21T06:54:21;19.30;99.90
18225;DHT22;9237;48.590;8.854;2023-05-21T06:56:48;19.60;99.90
18225;DHT22;9237;48.590;8.854;2023-05-21T06:59:15;19.30;99.90
18225;DHT22;9237;48.590;8.854;2023-05-21T07:01:42;19.70;99.90
18225;DHT22;9237;48.590;8.854;2023-05-21T07:04:09;20.00;99.90
18225;DHT22;9237;48.590;8.854;2023-05-21T07:06:38;20.50;99.90
18225;DHT22;9237;48.590;8.854;2023-05-21T07:09:05;20.80;99.90
18225;DHT22;9237;48.590;8.854;2023-05-21T07:11:32;20.40;99.90
18225;DHT22;9237;48.590;8.854;2023-05-21T07:13:59;20.80;99.90
18225;DHT22;9237;48.590;8.854;2023-05-21T07:16:26;20.80;99.90
18225;DHT22;9237;48.590;8.854;2023-05-21T07:18:53;21.20;99.90
18225;DHT22;9237;48.590;8.854;2023-05-21T07:21:19;21.50;99.90
18225;DHT22;9237;48.590;8.854;2023-05-21T07:23:47;21.80;99.90
18225;DHT22;9237;48.590;8.854;2023-05-21T07:26:14;21.30;99.90
18225;DHT22;9237;48.590;8.854;2023-05-21T07:28:41;21.20;99.90
18225;DHT22;9237;48.590;8.854;2023-05-21T07:31:09;21.20;99.90
18225;DHT22;9237;48.590;8.854;2023-05-21T07:33:37;21.00;99.90
18225;DHT22;9237;48.590;8.854;2023-05-21T07:36:04;20.50;99.90
18225;DHT22;9237;48.590;8.854;2023-05-21T07:38:31;20.90;99.90
18225;DHT22;9237;48.590;8.854;2023-05-21T07:40:59;20.90;99.90
18225;DHT22;9237;48.590;8.854;2023-05-21T07:43:26;21.20;99.90
18225;DHT22;9237;48.590;8.854;2023-05-21T07:45:53;21.00;99.90
18225;DHT22;9237;48.590;8.854;2023-05-21T07:48:20;20.90;99.90
18225;DHT22;9237;48.590;8.854;2023-05-21T07:50:46;20.50;99.90
18225;DHT22;9237;48.590;8.854;2023-05-21T07:53:14;20.70;99.90
18225;DHT22;9237;48.590;8.854;2023-05-21T07:55:41;20.60;99.90
18225;DHT22;9237;48.590;8.854;2023-05-21T07:58:14;20.90;99.90
18225;DHT22;9237;48.590;8.854;2023-05-21T08:00:44;21.40;99.90
18225;DHT22;9237;48.590;8.854;2023-05-21T08:03:13;21.70;99.90
18225;DHT22;9237;48.590;8.854;2023-05-21T08:05:41;21.40;99.90
18225;DHT22;9237;48.590;8.854;2023-05-21T08:08:09;21.50;99.90
18225;DHT22;9237;48.590;8.854;2023-05-21T08:10:37;21.30;99.90
18225;DHT22;9237;48.590;8.854;2023-05-21T08:13:04;21.50;99.90
18225;DHT22;9237;48.590;8.854;2023-05-21T08:15:32;21.70;99.90
18225;DHT22;9237;48.590;8.854;2023-05-21T08:17:59;21.50;99.90
18225;DHT22;9237;48.590;8.854;2023-05-21T08:20:25;21.60;99.90
18225;DHT22;9237;48.590;8.854;2023-05-21T08:22:53;21.60;99.90
18225;DHT22;9237;48.590;8.854;2023-05-21T08:25:20;21.50;99.90
18225;DHT22;9237;48.590;8.854;2023-05-21T08:27:47;21.90;99.90
18225;DHT22;9237;48.590;8.854;2023-05-21T08:30:13;22.30;98.20
18225;DHT22;9237;48.590;8.854;2023-05-21T08:32:42;21.80;96.80
18225;DHT22;9237;48.590;8.854;2023-05-21T08:35:09;21.40;97.50
18225;DHT22;9237;48.590;8.854;2023-05-21T08:37:36;22.20;97.80
18225;DHT22;9237;48.590;8.854;2023-05-21T08:40:03;22.90;97.70
18225;DHT22;9237;48.590;8.854;2023-05-21T08:42:38;23.30;95.60
18225;DHT22;9237;48.590;8.854;2023-05-21T08:45:06;24.00;96.00
18225;DHT22;9237;48.590;8.854;2023-05-21T08:47:34;25.00;95.70
18225;DHT22;9237;48.590;8.854;2023-05-21T08:50:03;24.90;93.40
18225;DHT22;9237;48.590;8.854;2023-05-21T08:52:31;24.70;92.20
18225;DHT22;9237;48.590;8.854;2023-05-21T08:54:58;25.20;92.40
18225;DHT22;9237;48.590;8.854;2023-05-21T08:57:26;26.10;90.50
18225;DHT22;9237;48.590;8.854;2023-05-21T08:59:53;25.90;90.60
18225;DHT22;9237;48.590;8.854;2023-05-21T09:02:20;26.30;90.10
18225;DHT22;9237;48.590;8.854;2023-05-21T09:04:50;26.50;90.60
18225;DHT22;9237;48.590;8.854;2023-05-21T09:07:24;25.10;91.30
18225;DHT22;9237;48.590;8.854;2023-05-21T09:09:55;25.70;90.40
18225;DHT22;9237;48.590;8.854;2023-05-21T09:12:24;26.80;85.80
18225;DHT22;9237;48.590;8.854;2023-05-21T09:14:51;26.90;84.40
18225;DHT22;9237;48.590;8.854;2023-05-21T09:17:18;26.80;84.00
18225;DHT22;9237;48.590;8.854;2023-05-21T09:20:09;27.00;83.00
18225;DHT22;9237;48.590;8.854;2023-05-21T09:22:39;26.20;83.20
18225;DHT22;9237;48.590;8.854;2023-05-21T09:25:08;26.40;84.20
18225;DHT22;9237;48.590;8.854;2023-05-21T09:27:35;26.30;82.20
18225;DHT22;9237;48.590;8.854;2023-05-21T09:30:02;25.90;81.00
18225;DHT22;9237;48.590;8.854;2023-05-21T09:32:30;26.40;81.60
18225;DHT22;9237;48.590;8.854;2023-05-21T09:34:57;26.00;83.70
18225;DHT22;9237;48.590;8.854;2023-05-21T09:37:31;25.90;81.30
18225;DHT22;9237;48.590;8.854;2023-05-21T09:40:11;25.30;83.40
18225;DHT22;9237;48.590;8.854;2023-05-21T09:42:38;25.60;83.80
18225;DHT22;9237;48.590;8.854;2023-05-21T09:45:06;25.70;81.60
18225;DHT22;9237;48.590;8.854;2023-05-21T09:47:40;26.20;83.80
18225;DHT22;9237;48.590;8.854;2023-05-21T09:50:08;26.80;79.60
18225;DHT22;9237;48.590;8.854;2023-05-21T09:52:36;27.20;78.80
18225;DHT22;9237;48.590;8.854;2023-05-21T09:55:05;26.10;78.50
18225;DHT22;9237;48.590;8.854;2023-05-21T09:57:32;25.80;82.50
18225;DHT22;9237;48.590;8.854;2023-05-21T09:59:58;26.90;78.30
18225;DHT22;9237;48.590;8.854;2023-05-21T10:02:25;26.90;81.90
18225;DHT22;9237;48.590;8.854;2023-05-21T10:04:52;27.20;78.60
18225;DHT22;9237;48.590;8.854;2023-05-21T10:07:21;27.30;74.60
18225;DHT22;9237;48.590;8.854;2023-05-21T10:09:53;27.00;74.10
18225;DHT22;9237;48.590;8.854;2023-05-21T10:12:23;27.60;74.60
18225;DHT22;9237;48.590;8.854;2023-05-21T10:14:52;28.30;74.00
18225;DHT22;9237;48.590;8.854;2023-05-21T10:17:21;27.80;72.20
18225;DHT22;9237;48.590;8.854;2023-05-21T10:19:49;28.30;72.30
18225;DHT22;9237;48.590;8.854;2023-05-21T10:22:17;28.70;71.60
18225;DHT22;9237;48.590;8.854;2023-05-21T10:24:44;27.80;73.90
18225;DHT22;9237;48.590;8.854;2023-05-21T10:27:12;27.90;74.70
18225;DHT22;9237;48.590;8.854;2023-05-21T10:29:43;27.60;75.20
18225;DHT22;9237;48.590;8.854;2023-05-21T10:32:11;26.80;74.40
18225;DHT22;9237;48.590;8.854;2023-05-21T10:34:38;25.80;77.70
18225;DHT22;9237;48.590;8.854;2023-05-21T10:37:07;26.40;80.00
18225;DHT22;9237;48.590;8.854;2023-05-21T10:39:35;26.60;77.60
18225;DHT22;9237;48.590;8.854;2023-05-21T10:42:11;26.20;76.20
18225;DHT22;9237;48.590;8.854;2023-05-21T10:44:55;26.60;76.30
18225;DHT22;9237;48.590;8.854;2023-05-21T10:47:45;26.40;75.10
18225;DHT22;9237;48.590;8.854;2023-05-21T10:50:29;27.50;78.10
18225;DHT22;9237;48.590;8.854;2023-05-21T10:53:06;28.20;77.00
18225;DHT22;9237;48.590;8.854;2023-05-21T10:55:46;28.50;75.20
18225;DHT22;9237;48.590;8.854;2023-05-21T10:58:51;28.00;74.70
18225;DHT22;9237;48.590;8.854;2023-05-21T11:01:25;28.90;73.90
18225;DHT22;9237;48.590;8.854;2023-05-21T11:03:54;29.50;70.70
18225;DHT22;9237;48.590;8.854;2023-05-21T11:06:22;30.10;70.00
18225;DHT22;9237;48.590;8.854;2023-05-21T11:09:02;30.50;70.50
18225;DHT22;9237;48.590;8.854;2023-05-21T11:11:40;30.90;70.80
18225;DHT22;9237;48.590;8.854;2023-05-21T11:14:30;31.80;67.80
18225;DHT22;9237;48.590;8.854;2023-05-21T11:17:01;31.40;67.20
18225;DHT22;9237;48.590;8.854;2023-05-21T11:19:33;31.30;65.50
18225;DHT22;9237;48.590;8.854;2023-05-21T11:22:01;31.30;63.30
18225;DHT22;9237;48.590;8.854;2023-05-21T11:24:31;30.80;63.50
18225;DHT22;9237;48.590;8.854;2023-05-21T11:26:59;28.80;66.80
18225;DHT22;9237;48.590;8.854;2023-05-21T11:29:41;29.00;69.40
18225;DHT22;9237;48.590;8.854;2023-05-21T11:32:11;27.70;72.00
18225;DHT22;9237;48.590;8.854;2023-05-21T11:34:40;28.70;72.80
18225;DHT22;9237;48.590;8.854;2023-05-21T11:37:24;29.90;68.60
18225;DHT22;9237;48.590;8.854;2023-05-21T11:39:54;30.70;66.50
18225;DHT22;9237;48.590;8.854;2023-05-21T11:42:31;30.80;63.70
18225;DHT22;9237;48.590;8.854;2023-05-21T11:44:59;30.00;63.70
18225;DHT22;9237;48.590;8.854;2023-05-21T11:47:28;30.30;64.20
18225;DHT22;9237;48.590;8.854;2023-05-21T11:50:00;29.40;66.10
18225;DHT22;9237;48.590;8.854;2023-05-21T11:52:28;29.00;63.20
18225;DHT22;9237;48.590;8.854;2023-05-21T11:54:56;27.80;65.20
18225;DHT22;9237;48.590;8.854;2023-05-21T11:57:27;27.70;65.90
18225;DHT22;9237;48.590;8.854;2023-05-21T11:59:56;27.70;68.00
18225;DHT22;9237;48.590;8.854;2023-05-21T12:02:25;27.60;66.20
18225;DHT22;9237;48.590;8.854;2023-05-21T12:04:54;28.00;71.50
18225;DHT22;9237;48.590;8.854;2023-05-21T12:07:25;27.80;65.30
18225;DHT22;9237;48.590;8.854;2023-05-21T12:09:54;27.90;66.70
18225;DHT22;9237;48.590;8.854;2023-05-21T12:12:21;28.20;64.20
18225;DHT22;9237;48.590;8.854;2023-05-21T12:14:49;27.40;66.80
18225;DHT22;9237;48.590;8.854;2023-05-21T12:17:17;26.20;67.50
18225;DHT22;9237;48.590;8.854;2023-05-21T12:19:45;26.10;70.30
18225;DHT22;9237;48.590;8.854;2023-05-21T12:22:14;26.10;67.90
18225;DHT22;9237;48.590;8.854;2023-05-21T12:24:41;26.60;68.70
18225;DHT22;9237;48.590;8.854;2023-05-21T12:27:09;26.80;66.50
18225;DHT22;9237;48.590;8.854;2023-05-21T12:29:38;26.70;68.90
18225;DHT22;9237;48.590;8.854;2023-05-21T12:32:07;27.70;66.10
18225;DHT22;9237;48.590;8.854;2023-05-21T12:34:39;27.30;67.10
18225;DHT22;9237;48.590;8.854;2023-05-21T12:37:07;27.80;65.60
18225;DHT22;9237;48.590;8.854;2023-05-21T12:39:41;27.90;63.30
18225;DHT22;9237;48.590;8.854;2023-05-21T12:42:08;28.00;65.10
18225;DHT22;9237;48.590;8.854;2023-05-21T12:44:37;27.70;63.70
18225;DHT22;9237;48.590;8.854;2023-05-21T12:47:05;27.90;64.20
18225;DHT22;9237;48.590;8.854;2023-05-21T12:49:34;27.60;64.60
18225;DHT22;9237;48.590;8.854;2023-05-21T12:52:02;27.80;66.80
18225;DHT22;9237;48.590;8.854;2023-05-21T12:54:32;28.30;62.90
18225;DHT22;9237;48.590;8.854;2023-05-21T12:57:08;29.20;62.30
18225;DHT22;9237;48.590;8.854;2023-05-21T12:59:46;29.70;58.60
18225;DHT22;9237;48.590;8.854;2023-05-21T13:02:14;28.70;61.90
18225;DHT22;9237;48.590;8.854;2023-05-21T13:04:41;28.60;61.30
18225;DHT22;9237;48.590;8.854;2023-05-21T13:07:08;28.90;59.60
18225;DHT22;9237;48.590;8.854;2023-05-21T13:09:35;29.70;60.90
18225;DHT22;9237;48.590;8.854;2023-05-21T13:12:02;30.30;59.40
18225;DHT22;9237;48.590;8.854;2023-05-21T13:14:30;30.30;56.80
18225;DHT22;9237;48.590;8.854;2023-05-21T13:16:57;29.40;59.10
18225;DHT22;9237;48.590;8.854;2023-05-21T13:19:24;29.90;58.90
18225;DHT22;9237;48.590;8.854;2023-05-21T13:21:51;28.90;59.80
18225;DHT22;9237;48.590;8.854;2023-05-21T13:24:17;28.70;58.10
18225;DHT22;9237;48.590;8.854;2023-05-21T13:26:44;28.90;58.00
18225;DHT22;9237;48.590;8.854;2023-05-21T13:29:11;29.00;57.90
18225;DHT22;9237;48.590;8.854;2023-05-21T13:31:40;30.30;57.70
18225;DHT22;9237;48.590;8.854;2023-05-21T13:34:08;30.20;55.80
18225;DHT22;9237;48.590;8.854;2023-05-21T13:36:35;29.10;57.70
18225;DHT22;9237;48.590;8.854;2023-05-21T13:39:02;27.50;62.40
18225;DHT22;9237;48.590;8.854;2023-05-21T13:41:29;27.50;61.80
18225;DHT22;9237;48.590;8.854;2023-05-21T13:43:56;27.50;64.00
18225;DHT22;9237;48.590;8.854;2023-05-21T13:46:23;27.00;65.10
18225;DHT22;9237;48.590;8.854;2023-05-21T13:48:51;26.60;64.50
18225;DHT22;9237;48.590;8.854;2023-05-21T13:51:18;27.00;64.70
18225;DHT22;9237;48.590;8.854;2023-05-21T13:53:44;27.30;63.70
18225;DHT22;9237;48.590;8.854;2023-05-21T13:56:11;27.30;62.40
18225;DHT22;9237;48.590;8.854;2023-05-21T13:58:38;26.60;64.30
18225;DHT22;9237;48.590;8.854;2023-05-21T14:01:05;26.90;65.10
18225;DHT22;9237;48.590;8.854;2023-05-21T14:03:32;26.70;66.70
18225;DHT22;9237;48.590;8.854;2023-05-21T14:06:00;26.90;65.80
18225;DHT22;9237;48.590;8.854;2023-05-21T14:08:27;26.10;66.30
18225;DHT22;9237;48.590;8.854;2023-05-21T14:10:53;25.70;67.90
18225;DHT22;9237;48.590;8.854;2023-05-21T14:13:20;25.90;68.40
18225;DHT22;9237;48.590;8.854;2023-05-21T14:15:47;25.70;67.90
18225;DHT22;9237;48.590;8.854;2023-05-21T14:18:14;25.50;69.50
18225;DHT22;9237;48.590;8.854;2023-05-21T14:20:41;24.90;68.00
18225;DHT22;9237;48.590;8.854;2023-05-21T14:23:09;24.90;69.00
18225;DHT22;9237;48.590;8.854;2023-05-21T14:26:07;25.30;70.80
18225;DHT22;9237;48.590;8.854;2023-05-21T14:28:34;26.00;72.00
18225;DHT22;9237;48.590;8.854;2023-05-21T14:31:01;26.00;67.50
18225;DHT22;9237;48.590;8.854;2023-05-21T14:33:29;25.40;68.40
18225;DHT22;9237;48.590;8.854;2023-05-21T14:35:57;25.90;68.50
18225;DHT22;9237;48.590;8.854;2023-05-21T14:38:25;26.10;68.00
18225;DHT22;9237;48.590;8.854;2023-05-21T14:40:52;25.60;69.40
18225;DHT22;9237;48.590;8.854;2023-05-21T14:43:19;25.70;69.20
18225;DHT22;9237;48.590;8.854;2023-05-21T14:45:46;25.50;69.60
18225;DHT22;9237;48.590;8.854;2023-05-21T14:48:13;25.10;70.10
18225;DHT22;9237;48.590;8.854;2023-05-21T14:50:40;24.60;73.50
18225;DHT22;9237;48.590;8.854;2023-05-21T14:53:08;24.60;72.40
18225;DHT22;9237;48.590;8.854;2023-05-21T14:55:37;24.60;72.40
18225;DHT22;9237;48.590;8.854;2023-05-21T14:58:04;24.40;72.30
18225;DHT22;9237;48.590;8.854;2023-05-21T15:00:31;24.30;72.80
18225;DHT22;9237;48.590;8.854;2023-05-21T15:02:59;24.40;72.20
18225;DHT22;9237;48.590;8.854;2023-05-21T15:05:26;24.40;73.40
18225;DHT22;9237;48.590;8.854;2023-05-21T15:07:54;24.70;73.40
18225;DHT22;9237;48.590;8.854;2023-05-21T15:10:21;24.60;72.30
18225;DHT22;9237;48.590;8.854;2023-05-21T15:12:49;23.90;72.70
18225;DHT22;9237;48.590;8.854;2023-05-21T15:15:17;24.00;74.40
18225;DHT22;9237;48.590;8.854;2023-05-21T15:17:45;24.00;73.80
18225;DHT22;9237;48.590;8.854;2023-05-21T15:20:12;24.50;73.50
18225;DHT22;9237;48.590;8.854;2023-05-21T15:22:39;24.20;70.80
18225;DHT22;9237;48.590;8.854;2023-05-21T15:25:06;24.20;72.80
18225;DHT22;9237;48.590;8.854;2023-05-21T15:27:33;24.50;74.20
18225;DHT22;9237;48.590;8.854;2023-05-21T15:30:02;24.20;71.80
18225;DHT22;9237;48.590;8.854;2023-05-21T15:32:29;24.10;71.90
18225;DHT22;9237;48.590;8.854;2023-05-21T15:34:56;24.20;71.20
18225;DHT22;9237;48.590;8.854;2023-05-21T15:37:23;24.20;72.10
18225;DHT22;9237;48.590;8.854;2023-05-21T15:39:50;24.20;72.00
18225;DHT22;9237;48.590;8.854;2023-05-21T15:42:17;24.20;70.00
18225;DHT22;9237;48.590;8.854;2023-05-21T15:44:44;24.40;70.60
18225;DHT22;9237;48.590;8.854;2023-05-21T15:47:12;24.50;70.60
18225;DHT22;9237;48.590;8.854;2023-05-21T15:49:40;24.60;70.50
18225;DHT22;9237;48.590;8.854;2023-05-21T15:52:07;24.50;69.50